Terminal Aerodrome Forecast
Issued by NWS

Home | Current Version | Previous Version | Text Only | Print | Product List | Glossary On
Versions: 1 2 3 4 5 6 7 8 9 10 11 12 13 14 15 16 17 18
000
FTUS44 KBMX 232300
TAFMGM
TAF
KMGM 232337Z 2400/2424 07007KT P6SM FEW060
      TEMPO 2409/2413 BKN015
     FM241300 07010KT P6SM SCT040=

USA.gov is the U.S. government's official web portal to all federal, state and local government web resources and services.